sensor_id;sensor_type;location;lat;lon;timestamp;temperature;humidity
1129;DHT22;553;51.038;7.216;2023-02-21T00:02:22;8.30;99.90
1129;DHT22;553;51.038;7.216;2023-02-21T00:05:07;8.30;99.90
1129;DHT22;553;51.038;7.216;2023-02-21T00:07:53;8.30;99.90
1129;DHT22;553;51.038;7.216;2023-02-21T00:10:38;8.30;99.90
1129;DHT22;553;51.038;7.216;2023-02-21T00:13:24;8.20;99.90
1129;DHT22;553;51.038;7.216;2023-02-21T00:16:14;8.20;99.90
1129;DHT22;553;51.038;7.216;2023-02-21T00:19:00;8.20;99.90
1129;DHT22;553;51.038;7.216;2023-02-21T00:21:45;8.10;99.90
1129;DHT22;553;51.038;7.216;2023-02-21T00:24:31;8.10;99.90
1129;DHT22;553;51.038;7.216;2023-02-21T00:27:16;8.20;99.90
1129;DHT22;553;51.038;7.216;2023-02-21T00:30:02;8.20;99.90
1129;DHT22;553;51.038;7.216;2023-02-21T00:32:48;8.30;99.90
1129;DHT22;553;51.038;7.216;2023-02-21T00:35:33;8.30;99.90
1129;DHT22;553;51.038;7.216;2023-02-21T00:38:18;8.30;99.90
1129;DHT22;553;51.038;7.216;2023-02-21T00:41:04;8.40;99.90
1129;DHT22;553;51.038;7.216;2023-02-21T00:43:49;8.40;99.90
1129;DHT22;553;51.038;7.216;2023-02-21T00:46:35;8.30;99.90
1129;DHT22;553;51.038;7.216;2023-02-21T00:49:20;8.30;99.90
1129;DHT22;553;51.038;7.216;2023-02-21T00:52:05;8.30;99.90
1129;DHT22;553;51.038;7.216;2023-02-21T00:54:51;8.30;99.90
1129;DHT22;553;51.038;7.216;2023-02-21T00:57:36;8.30;99.90
1129;DHT22;553;51.038;7.216;2023-02-21T01:00:23;8.20;99.90
1129;DHT22;553;51.038;7.216;2023-02-21T01:03:09;8.20;99.90
1129;DHT22;553;51.038;7.216;2023-02-21T01:05:56;8.30;99.90
1129;DHT22;553;51.038;7.216;2023-02-21T01:08:43;8.30;99.90
1129;DHT22;553;51.038;7.216;2023-02-21T01:11:30;8.30;99.90
1129;DHT22;553;51.038;7.216;2023-02-21T01:14:16;8.40;99.90
1129;DHT22;553;51.038;7.216;2023-02-21T01:17:01;8.40;99.90
1129;DHT22;553;51.038;7.216;2023-02-21T01:19:47;8.30;99.90
1129;DHT22;553;51.038;7.216;2023-02-21T01:22:33;8.40;99.90
1129;DHT22;553;51.038;7.216;2023-02-21T01:25:19;8.30;99.90
1129;DHT22;553;51.038;7.216;2023-02-21T01:28:04;8.20;99.90
1129;DHT22;553;51.038;7.216;2023-02-21T01:30:49;8.20;99.90
1129;DHT22;553;51.038;7.216;2023-02-21T01:33:37;8.00;99.90
1129;DHT22;553;51.038;7.216;2023-02-21T01:36:23;8.00;99.90
1129;DHT22;553;51.038;7.216;2023-02-21T01:39:09;8.00;99.90
1129;DHT22;553;51.038;7.216;2023-02-21T01:41:55;8.00;99.90
1129;DHT22;553;51.038;7.216;2023-02-21T01:44:45;8.00;99.90
1129;DHT22;553;51.038;7.216;2023-02-21T01:47:32;8.00;99.90
1129;DHT22;553;51.038;7.216;2023-02-21T01:50:19;8.00;99.90
1129;DHT22;553;51.038;7.216;2023-02-21T01:53:13;8.10;99.90
1129;DHT22;553;51.038;7.216;2023-02-21T01:56:03;8.20;99.90
1129;DHT22;553;51.038;7.216;2023-02-21T01:58:52;8.10;99.90
1129;DHT22;553;51.038;7.216;2023-02-21T02:04:32;8.00;99.90
1129;DHT22;553;51.038;7.216;2023-02-21T02:07:19;8.10;99.90
1129;DHT22;553;51.038;7.216;2023-02-21T02:10:06;8.10;99.90
1129;DHT22;553;51.038;7.216;2023-02-21T02:27:43;7.80;99.90
1129;DHT22;553;51.038;7.216;2023-02-21T02:30:46;7.80;99.90
1129;DHT22;553;51.038;7.216;2023-02-21T02:33:34;7.90;99.90
1129;DHT22;553;51.038;7.216;2023-02-21T02:36:27;7.80;99.90
1129;DHT22;553;51.038;7.216;2023-02-21T02:39:01;7.90;99.90
1129;DHT22;553;51.038;7.216;2023-02-21T02:44:25;8.00;99.90
1129;DHT22;553;51.038;7.216;2023-02-21T02:46:57;8.00;99.90
1129;DHT22;553;51.038;7.216;2023-02-21T02:49:27;8.00;99.90
1129;DHT22;553;51.038;7.216;2023-02-21T02:52:02;8.00;99.90
1129;DHT22;553;51.038;7.216;2023-02-21T02:54:30;8.10;99.90
1129;DHT22;553;51.038;7.216;2023-02-21T02:56:58;8.00;99.90
1129;DHT22;553;51.038;7.216;2023-02-21T02:59:28;8.00;99.90
1129;DHT22;553;51.038;7.216;2023-02-21T03:08:27;8.10;99.90
1129;DHT22;553;51.038;7.216;2023-02-21T03:11:14;8.10;99.90
1129;DHT22;553;51.038;7.216;2023-02-21T03:14:12;8.00;99.90
1129;DHT22;553;51.038;7.216;2023-02-21T03:16:45;8.00;99.90
1129;DHT22;553;51.038;7.216;2023-02-21T03:19:17;8.10;99.90
1129;DHT22;553;51.038;7.216;2023-02-21T03:21:51;8.00;99.90
1129;DHT22;553;51.038;7.216;2023-02-21T03:24:21;8.00;99.90
1129;DHT22;553;51.038;7.216;2023-02-21T03:26:51;8.10;99.90
1129;DHT22;553;51.038;7.216;2023-02-21T03:29:39;8.20;99.90
1129;DHT22;553;51.038;7.216;2023-02-21T03:32:14;8.20;99.90
1129;DHT22;553;51.038;7.216;2023-02-21T03:34:43;8.10;99.90
1129;DHT22;553;51.038;7.216;2023-02-21T03:39:56;8.10;99.90
1129;DHT22;553;51.038;7.216;2023-02-21T03:42:23;8.30;99.90
1129;DHT22;553;51.038;7.216;2023-02-21T03:44:49;8.30;99.90
1129;DHT22;553;51.038;7.216;2023-02-21T03:47:16;8.30;99.90
1129;DHT22;553;51.038;7.216;2023-02-21T03:49:43;8.40;99.90
1129;DHT22;553;51.038;7.216;2023-02-21T03:52:11;8.40;99.90
1129;DHT22;553;51.038;7.216;2023-02-21T03:54:41;8.30;99.90
1129;DHT22;553;51.038;7.216;2023-02-21T03:57:11;8.30;99.90
1129;DHT22;553;51.038;7.216;2023-02-21T03:59:41;8.30;99.90
1129;DHT22;553;51.038;7.216;2023-02-21T04:02:08;8.30;99.90
1129;DHT22;553;51.038;7.216;2023-02-21T04:04:35;8.20;99.90
1129;DHT22;553;51.038;7.216;2023-02-21T04:07:08;8.20;99.90
1129;DHT22;553;51.038;7.216;2023-02-21T04:09:35;8.20;99.90
1129;DHT22;553;51.038;7.216;2023-02-21T04:12:02;8.20;99.90
1129;DHT22;553;51.038;7.216;2023-02-21T04:14:31;8.30;99.90
1129;DHT22;553;51.038;7.216;2023-02-21T04:16:58;8.30;99.90
1129;DHT22;553;51.038;7.216;2023-02-21T04:19:25;8.30;99.90
1129;DHT22;553;51.038;7.216;2023-02-21T04:21:52;8.20;99.90
1129;DHT22;553;51.038;7.216;2023-02-21T04:24:19;8.30;99.90
1129;DHT22;553;51.038;7.216;2023-02-21T04:26:46;8.30;99.90
1129;DHT22;553;51.038;7.216;2023-02-21T04:29:13;8.30;99.90
1129;DHT22;553;51.038;7.216;2023-02-21T04:31:40;8.40;99.90
1129;DHT22;553;51.038;7.216;2023-02-21T04:34:11;8.30;99.90
1129;DHT22;553;51.038;7.216;2023-02-21T04:36:41;8.40;99.90
1129;DHT22;553;51.038;7.216;2023-02-21T04:39:09;8.40;99.90
1129;DHT22;553;51.038;7.216;2023-02-21T04:41:36;8.40;99.90
1129;DHT22;553;51.038;7.216;2023-02-21T04:44:03;8.40;99.90
1129;DHT22;553;51.038;7.216;2023-02-21T04:46:33;8.40;99.90
1129;DHT22;553;51.038;7.216;2023-02-21T04:49:00;8.40;99.90
1129;DHT22;553;51.038;7.216;2023-02-21T04:51:27;8.40;99.90
1129;DHT22;553;51.038;7.216;2023-02-21T04:53:54;8.40;99.90
1129;DHT22;553;51.038;7.216;2023-02-21T04:56:23;8.40;99.90
1129;DHT22;553;51.038;7.216;2023-02-21T04:58:50;8.40;99.90
1129;DHT22;553;51.038;7.216;2023-02-21T05:01:18;8.30;99.90
1129;DHT22;553;51.038;7.216;2023-02-21T05:03:46;8.30;99.90
1129;DHT22;553;51.038;7.216;2023-02-21T05:06:20;8.40;99.90
1129;DHT22;553;51.038;7.216;2023-02-21T05:08:48;8.40;99.90
1129;DHT22;553;51.038;7.216;2023-02-21T05:11:16;8.40;99.90
1129;DHT22;553;51.038;7.216;2023-02-21T05:13:44;8.40;99.90
1129;DHT22;553;51.038;7.216;2023-02-21T05:16:11;8.40;99.90
1129;DHT22;553;51.038;7.216;2023-02-21T05:18:41;8.40;99.90
1129;DHT22;553;51.038;7.216;2023-02-21T05:21:08;8.40;99.90
1129;DHT22;553;51.038;7.216;2023-02-21T05:23:35;8.50;99.90
1129;DHT22;553;51.038;7.216;2023-02-21T05:26:10;8.40;99.90
1129;DHT22;553;51.038;7.216;2023-02-21T05:28:38;8.40;99.90
1129;DHT22;553;51.038;7.216;2023-02-21T05:31:05;8.40;99.90
1129;DHT22;553;51.038;7.216;2023-02-21T05:33:32;8.40;99.90
1129;DHT22;553;51.038;7.216;2023-02-21T05:35:59;8.40;99.90
1129;DHT22;553;51.038;7.216;2023-02-21T05:38:26;8.40;99.90
1129;DHT22;553;51.038;7.216;2023-02-21T05:40:53;8.30;99.90
1129;DHT22;553;51.038;7.216;2023-02-21T05:43:20;8.40;99.90
1129;DHT22;553;51.038;7.216;2023-02-21T05:45:47;8.30;99.90
1129;DHT22;553;51.038;7.216;2023-02-21T05:48:13;8.40;99.90
1129;DHT22;553;51.038;7.216;2023-02-21T05:50:41;8.40;99.90
1129;DHT22;553;51.038;7.216;2023-02-21T05:53:08;8.30;99.90
1129;DHT22;553;51.038;7.216;2023-02-21T05:55:36;8.30;99.90
1129;DHT22;553;51.038;7.216;2023-02-21T05:58:03;8.30;99.90
1129;DHT22;553;51.038;7.216;2023-02-21T06:00:30;8.40;99.90
1129;DHT22;553;51.038;7.216;2023-02-21T06:02:57;8.40;99.90
1129;DHT22;553;51.038;7.216;2023-02-21T06:05:24;8.30;99.90
1129;DHT22;553;51.038;7.216;2023-02-21T06:07:51;8.30;99.90
1129;DHT22;553;51.038;7.216;2023-02-21T06:10:18;8.40;99.90
1129;DHT22;553;51.038;7.216;2023-02-21T06:12:45;8.40;99.90
1129;DHT22;553;51.038;7.216;2023-02-21T06:15:12;8.40;99.90
1129;DHT22;553;51.038;7.216;2023-02-21T06:17:40;8.40;99.90
1129;DHT22;553;51.038;7.216;2023-02-21T06:20:09;8.40;99.90
1129;DHT22;553;51.038;7.216;2023-02-21T06:22:37;8.40;99.90
1129;DHT22;553;51.038;7.216;2023-02-21T06:25:05;8.30;99.90
1129;DHT22;553;51.038;7.216;2023-02-21T06:27:31;8.40;99.90
1129;DHT22;553;51.038;7.216;2023-02-21T06:29:58;8.40;99.90
1129;DHT22;553;51.038;7.216;2023-02-21T06:32:25;8.50;99.90
1129;DHT22;553;51.038;7.216;2023-02-21T06:34:53;8.40;99.90
1129;DHT22;553;51.038;7.216;2023-02-21T06:37:19;8.50;99.90
1129;DHT22;553;51.038;7.216;2023-02-21T06:39:46;8.50;99.90
1129;DHT22;553;51.038;7.216;2023-02-21T06:42:14;8.50;99.90
1129;DHT22;553;51.038;7.216;2023-02-21T06:44:45;8.30;99.90
1129;DHT22;553;51.038;7.216;2023-02-21T06:47:12;8.30;99.90
1129;DHT22;553;51.038;7.216;2023-02-21T06:49:39;8.40;99.90
1129;DHT22;553;51.038;7.216;2023-02-21T06:52:06;8.30;99.90
1129;DHT22;553;51.038;7.216;2023-02-21T06:54:33;8.20;99.90
1129;DHT22;553;51.038;7.216;2023-02-21T06:57:00;8.30;99.90
1129;DHT22;553;51.038;7.216;2023-02-21T06:59:30;8.30;99.90
1129;DHT22;553;51.038;7.216;2023-02-21T07:01:57;8.30;99.90
1129;DHT22;553;51.038;7.216;2023-02-21T07:04:24;8.40;99.90
1129;DHT22;553;51.038;7.216;2023-02-21T07:06:51;8.40;99.90
1129;DHT22;553;51.038;7.216;2023-02-21T07:09:18;8.50;99.90
1129;DHT22;553;51.038;7.216;2023-02-21T07:11:44;8.40;99.90
1129;DHT22;553;51.038;7.216;2023-02-21T07:14:13;8.40;99.90
1129;DHT22;553;51.038;7.216;2023-02-21T07:16:40;8.50;99.90
1129;DHT22;553;51.038;7.216;2023-02-21T07:19:07;8.50;99.90
1129;DHT22;553;51.038;7.216;2023-02-21T07:21:33;8.40;99.90
1129;DHT22;553;51.038;7.216;2023-02-21T07:24:00;8.40;99.90
1129;DHT22;553;51.038;7.216;2023-02-21T07:26:27;8.40;99.90
1129;DHT22;553;51.038;7.216;2023-02-21T07:28:53;8.30;99.90
1129;DHT22;553;51.038;7.216;2023-02-21T07:31:20;8.40;99.90
1129;DHT22;553;51.038;7.216;2023-02-21T07:33:47;8.40;99.90
1129;DHT22;553;51.038;7.216;2023-02-21T07:36:14;8.40;99.90
1129;DHT22;553;51.038;7.216;2023-02-21T07:38:41;8.40;99.90
1129;DHT22;553;51.038;7.216;2023-02-21T07:41:08;8.40;99.90
1129;DHT22;553;51.038;7.216;2023-02-21T07:43:34;8.40;99.90
1129;DHT22;553;51.038;7.216;2023-02-21T07:46:02;8.30;99.90
1129;DHT22;553;51.038;7.216;2023-02-21T07:48:29;8.30;99.90
1129;DHT22;553;51.038;7.216;2023-02-21T07:50:55;8.30;99.90
1129;DHT22;553;51.038;7.216;2023-02-21T07:53:22;8.30;99.90
1129;DHT22;553;51.038;7.216;2023-02-21T07:55:49;8.20;99.90
1129;DHT22;553;51.038;7.216;2023-02-21T07:58:16;8.20;99.90
1129;DHT22;553;51.038;7.216;2023-02-21T08:00:45;8.30;99.90
1129;DHT22;553;51.038;7.216;2023-02-21T08:03:12;8.30;99.90
1129;DHT22;553;51.038;7.216;2023-02-21T08:05:39;8.40;99.90
1129;DHT22;553;51.038;7.216;2023-02-21T08:08:08;8.40;99.90
1129;DHT22;553;51.038;7.216;2023-02-21T08:10:35;8.40;99.90
1129;DHT22;553;51.038;7.216;2023-02-21T08:13:02;8.50;99.90
1129;DHT22;553;51.038;7.216;2023-02-21T08:15:29;8.50;99.90
1129;DHT22;553;51.038;7.216;2023-02-21T08:17:56;8.40;99.90
1129;DHT22;553;51.038;7.216;2023-02-21T08:20:22;8.40;99.90
1129;DHT22;553;51.038;7.216;2023-02-21T08:22:49;8.30;99.90
1129;DHT22;553;51.038;7.216;2023-02-21T08:25:16;8.40;99.90
1129;DHT22;553;51.038;7.216;2023-02-21T08:27:43;8.40;99.90
1129;DHT22;553;51.038;7.216;2023-02-21T08:30:12;8.40;99.90
1129;DHT22;553;51.038;7.216;2023-02-21T08:32:40;8.30;99.90
1129;DHT22;553;51.038;7.216;2023-02-21T08:35:07;8.40;99.90
1129;DHT22;553;51.038;7.216;2023-02-21T08:37:34;8.40;99.90
1129;DHT22;553;51.038;7.216;2023-02-21T08:40:03;8.50;99.90
1129;DHT22;553;51.038;7.216;2023-02-21T08:42:30;8.50;99.90
1129;DHT22;553;51.038;7.216;2023-02-21T08:44:56;8.50;99.90
1129;DHT22;553;51.038;7.216;2023-02-21T08:47:23;8.50;99.90
1129;DHT22;553;51.038;7.216;2023-02-21T08:49:50;8.40;99.90
1129;DHT22;553;51.038;7.216;2023-02-21T08:52:18;8.50;99.90
1129;DHT22;553;51.038;7.216;2023-02-21T08:54:47;8.50;99.90
1129;DHT22;553;51.038;7.216;2023-02-21T08:57:14;8.30;99.90
1129;DHT22;553;51.038;7.216;2023-02-21T08:59:42;8.30;99.90
1129;DHT22;553;51.038;7.216;2023-02-21T09:02:22;8.40;99.90
1129;DHT22;553;51.038;7.216;2023-02-21T09:04:51;8.40;99.90
1129;DHT22;553;51.038;7.216;2023-02-21T09:07:20;8.30;99.90
1129;DHT22;553;51.038;7.216;2023-02-21T09:09:47;8.30;99.90
1129;DHT22;553;51.038;7.216;2023-02-21T09:12:14;8.40;99.90
1129;DHT22;553;51.038;7.216;2023-02-21T09:14:42;8.50;99.90
1129;DHT22;553;51.038;7.216;2023-02-21T09:17:11;8.60;99.90
1129;DHT22;553;51.038;7.216;2023-02-21T09:19:39;8.60;99.90
1129;DHT22;553;51.038;7.216;2023-02-21T09:22:07;9.70;99.90
1129;DHT22;553;51.038;7.216;2023-02-21T09:24:34;9.40;99.90
1129;DHT22;553;51.038;7.216;2023-02-21T09:27:00;9.30;99.90
1129;DHT22;553;51.038;7.216;2023-02-21T09:29:30;9.00;99.90
1129;DHT22;553;51.038;7.216;2023-02-21T09:32:11;8.90;99.90
1129;DHT22;553;51.038;7.216;2023-02-21T09:34:38;8.80;99.90
1129;DHT22;553;51.038;7.216;2023-02-21T09:37:05;8.80;99.90
1129;DHT22;553;51.038;7.216;2023-02-21T09:39:32;8.80;99.90
1129;DHT22;553;51.038;7.216;2023-02-21T09:41:58;8.80;99.90
1129;DHT22;553;51.038;7.216;2023-02-21T09:44:27;8.70;99.90
1129;DHT22;553;51.038;7.216;2023-02-21T09:46:59;8.70;99.90
1129;DHT22;553;51.038;7.216;2023-02-21T09:49:36;8.60;99.90
1129;DHT22;553;51.038;7.216;2023-02-21T09:52:05;8.50;99.90
1129;DHT22;553;51.038;7.216;2023-02-21T09:54:36;8.50;99.90
1129;DHT22;553;51.038;7.216;2023-02-21T09:57:11;8.50;99.90
1129;DHT22;553;51.038;7.216;2023-02-21T09:59:38;8.30;99.90
1129;DHT22;553;51.038;7.216;2023-02-21T10:07:43;8.60;99.90
1129;DHT22;553;51.038;7.216;2023-02-21T10:10:21;8.60;99.90
1129;DHT22;553;51.038;7.216;2023-02-21T10:13:00;8.70;99.90
1129;DHT22;553;51.038;7.216;2023-02-21T10:15:38;8.70;99.90
1129;DHT22;553;51.038;7.216;2023-02-21T10:18:36;8.70;99.90
1129;DHT22;553;51.038;7.216;2023-02-21T10:21:11;8.60;99.90
1129;DHT22;553;51.038;7.216;2023-02-21T10:23:48;8.70;99.90
1129;DHT22;553;51.038;7.216;2023-02-21T10:26:27;8.60;99.90
1129;DHT22;553;51.038;7.216;2023-02-21T10:28:55;8.60;99.90
1129;DHT22;553;51.038;7.216;2023-02-21T10:31:29;8.60;99.90
1129;DHT22;553;51.038;7.216;2023-02-21T10:33:57;8.70;99.90
1129;DHT22;553;51.038;7.216;2023-02-21T10:36:26;8.70;99.90
1129;DHT22;553;51.038;7.216;2023-02-21T10:39:02;8.70;99.90
1129;DHT22;553;51.038;7.216;2023-02-21T10:41:35;8.70;99.90
1129;DHT22;553;51.038;7.216;2023-02-21T10:44:21;8.80;99.90
1129;DHT22;553;51.038;7.216;2023-02-21T10:46:57;8.90;99.90
1129;DHT22;553;51.038;7.216;2023-02-21T10:49:45;9.00;99.90
1129;DHT22;553;51.038;7.216;2023-02-21T10:52:16;8.90;99.90
1129;DHT22;553;51.038;7.216;2023-02-21T10:55:05;9.00;99.90
1129;DHT22;553;51.038;7.216;2023-02-21T10:57:44;8.90;99.90
1129;DHT22;553;51.038;7.216;2023-02-21T11:05:50;9.00;99.90
1129;DHT22;553;51.038;7.216;2023-02-21T11:08:34;8.70;99.90
1129;DHT22;553;51.038;7.216;2023-02-21T11:11:02;8.80;99.90
1129;DHT22;553;51.038;7.216;2023-02-21T11:13:29;8.80;99.90
1129;DHT22;553;51.038;7.216;2023-02-21T11:16:19;8.70;99.90
1129;DHT22;553;51.038;7.216;2023-02-21T11:19:03;8.80;99.90
1129;DHT22;553;51.038;7.216;2023-02-21T11:21:30;8.90;99.90
1129;DHT22;553;51.038;7.216;2023-02-21T11:24:03;8.90;99.90
1129;DHT22;553;51.038;7.216;2023-02-21T11:26:45;8.90;99.90
1129;DHT22;553;51.038;7.216;2023-02-21T11:29:18;8.90;99.90
1129;DHT22;553;51.038;7.216;2023-02-21T11:31:46;9.00;99.90
1129;DHT22;553;51.038;7.216;2023-02-21T11:34:14;9.30;99.90
1129;DHT22;553;51.038;7.216;2023-02-21T11:36:43;9.40;99.90
1129;DHT22;553;51.038;7.216;2023-02-21T11:39:18;9.40;99.90
1129;DHT22;553;51.038;7.216;2023-02-21T11:41:55;9.30;99.90
1129;DHT22;553;51.038;7.216;2023-02-21T11:44:36;9.30;99.90
1129;DHT22;553;51.038;7.216;2023-02-21T11:47:25;9.30;99.90
1129;DHT22;553;51.038;7.216;2023-02-21T11:55:14;9.50;99.90
1129;DHT22;553;51.038;7.216;2023-02-21T12:00:37;9.40;99.90
1129;DHT22;553;51.038;7.216;2023-02-21T12:03:28;9.50;99.90
1129;DHT22;553;51.038;7.216;2023-02-21T12:06:17;9.50;99.90
1129;DHT22;553;51.038;7.216;2023-02-21T12:09:01;9.50;99.90
1129;DHT22;553;51.038;7.216;2023-02-21T12:11:33;9.30;99.90
1129;DHT22;553;51.038;7.216;2023-02-21T12:14:23;9.40;99.90
1129;DHT22;553;51.038;7.216;2023-02-21T12:20:23;9.50;99.90
1129;DHT22;553;51.038;7.216;2023-02-21T12:26:02;9.60;99.90
1129;DHT22;553;51.038;7.216;2023-02-21T12:31:51;9.70;99.90
1129;DHT22;553;51.038;7.216;2023-02-21T12:37:20;9.80;99.90
1129;DHT22;553;51.038;7.216;2023-02-21T12:45:41;10.10;99.90
1129;DHT22;553;51.038;7.216;2023-02-21T12:51:06;10.10;99.90
1129;DHT22;553;51.038;7.216;2023-02-21T12:56:25;10.10;99.90
1129;DHT22;553;51.038;7.216;2023-02-21T12:58:59;10.30;99.90
1129;DHT22;553;51.038;7.216;2023-02-21T13:04:46;10.30;99.90
1129;DHT22;553;51.038;7.216;2023-02-21T13:07:19;10.30;99.90
1129;DHT22;553;51.038;7.216;2023-02-21T13:12:25;10.40;99.90
1129;DHT22;553;51.038;7.216;2023-02-21T13:14:59;10.50;99.90
1129;DHT22;553;51.038;7.216;2023-02-21T13:17:28;10.50;99.90
1129;DHT22;553;51.038;7.216;2023-02-21T13:20:05;10.50;99.90
1129;DHT22;553;51.038;7.216;2023-02-21T13:22:34;11.00;99.90
1129;DHT22;553;51.038;7.216;2023-02-21T13:28:14;10.70;99.90
1129;DHT22;553;51.038;7.216;2023-02-21T13:30:59;10.60;99.90
1129;DHT22;553;51.038;7.216;2023-02-21T13:33:28;10.50;99.90
1129;DHT22;553;51.038;7.216;2023-02-21T13:35:57;10.50;99.90
1129;DHT22;553;51.038;7.216;2023-02-21T13:38:27;10.50;99.90
1129;DHT22;553;51.038;7.216;2023-02-21T13:41:05;10.70;99.90
1129;DHT22;553;51.038;7.216;2023-02-21T13:43:34;10.50;99.90
1129;DHT22;553;51.038;7.216;2023-02-21T14:08:35;11.00;99.90
1129;DHT22;553;51.038;7.216;2023-02-21T14:13:37;10.90;99.90
1129;DHT22;553;51.038;7.216;2023-02-21T14:21:29;10.80;99.90
1129;DHT22;553;51.038;7.216;2023-02-21T14:24:20;10.90;99.90
1129;DHT22;553;51.038;7.216;2023-02-21T14:26:54;10.90;99.90
1129;DHT22;553;51.038;7.216;2023-02-21T14:29:44;10.90;99.90
1129;DHT22;553;51.038;7.216;2023-02-21T14:32:43;10.90;99.90
1129;DHT22;553;51.038;7.216;2023-02-21T14:35:33;10.90;99.90
1129;DHT22;553;51.038;7.216;2023-02-21T14:38:03;10.80;99.90
1129;DHT22;553;51.038;7.216;2023-02-21T14:45:58;10.90;99.90
1129;DHT22;553;51.038;7.216;2023-02-21T14:56:56;11.00;99.90
1129;DHT22;553;51.038;7.216;2023-02-21T15:02:55;11.10;99.90
1129;DHT22;553;51.038;7.216;2023-02-21T15:05:38;11.10;99.90
1129;DHT22;553;51.038;7.216;2023-02-21T15:08:28;11.10;99.90
1129;DHT22;553;51.038;7.216;2023-02-21T15:10:59;11.20;99.90
1129;DHT22;553;51.038;7.216;2023-02-21T15:13:33;11.20;99.90
1129;DHT22;553;51.038;7.216;2023-02-21T15:19:19;11.10;99.90
1129;DHT22;553;51.038;7.216;2023-02-21T15:21:19;11.10;99.90
1129;DHT22;553;51.038;7.216;2023-02-21T15:23:58;10.90;99.90
1129;DHT22;553;51.038;7.216;2023-02-21T15:26:28;10.90;99.90
1129;DHT22;553;51.038;7.216;2023-02-21T15:29:16;10.90;99.90
1129;DHT22;553;51.038;7.216;2023-02-21T15:31:51;10.90;99.90
1129;DHT22;553;51.038;7.216;2023-02-21T15:34:22;10.90;99.90
1129;DHT22;553;51.038;7.216;2023-02-21T15:37:24;10.90;99.90
1129;DHT22;553;51.038;7.216;2023-02-21T15:40:01;10.90;99.90
1129;DHT22;553;51.038;7.216;2023-02-21T15:42:39;10.90;99.90
1129;DHT22;553;51.038;7.216;2023-02-21T15:45:26;10.90;99.90
1129;DHT22;553;51.038;7.216;2023-02-21T15:47:54;11.00;99.90
1129;DHT22;553;51.038;7.216;2023-02-21T15:50:37;11.00;99.90
1129;DHT22;553;51.038;7.216;2023-02-21T15:53:22;11.10;99.90
1129;DHT22;553;51.038;7.216;2023-02-21T15:55:51;11.10;99.90
1129;DHT22;553;51.038;7.216;2023-02-21T15:58:23;11.10;99.90
1129;DHT22;553;51.038;7.216;2023-02-21T16:01:08;11.10;99.90
1129;DHT22;553;51.038;7.216;2023-02-21T16:03:41;11.00;99.90
1129;DHT22;553;51.038;7.216;2023-02-21T16:09:06;11.00;99.90
1129;DHT22;553;51.038;7.216;2023-02-21T16:11:52;11.10;99.90
1129;DHT22;553;51.038;7.216;2023-02-21T16:19:40;10.90;99.90
1129;DHT22;553;51.038;7.216;2023-02-21T16:24:43;10.90;99.90
1129;DHT22;553;51.038;7.216;2023-02-21T16:27:14;11.00;99.90
1129;DHT22;553;51.038;7.216;2023-02-21T16:29:40;10.80;99.90
1129;DHT22;553;51.038;7.216;2023-02-21T16:32:17;10.80;99.90
1129;DHT22;553;51.038;7.216;2023-02-21T16:34:45;10.70;99.90
1129;DHT22;553;51.038;7.216;2023-02-21T16:37:13;10.70;99.90
1129;DHT22;553;51.038;7.216;2023-02-21T16:39:41;10.70;99.90
1129;DHT22;553;51.038;7.216;2023-02-21T16:42:08;10.50;99.90
1129;DHT22;553;51.038;7.216;2023-02-21T16:44:34;10.50;99.90
1129;DHT22;553;51.038;7.216;2023-02-21T16:47:01;10.40;99.90
1129;DHT22;553;51.038;7.216;2023-02-21T16:49:28;10.40;99.90
1129;DHT22;553;51.038;7.216;2023-02-21T16:51:55;10.40;99.90
1129;DHT22;553;51.038;7.216;2023-02-21T16:54:21;10.30;99.90
1129;DHT22;553;51.038;7.216;2023-02-21T16:56:50;11.00;99.90
1129;DHT22;553;51.038;7.216;2023-02-21T16:59:19;12.40;99.90
1129;DHT22;553;51.038;7.216;2023-02-21T17:01:46;11.90;99.90
1129;DHT22;553;51.038;7.216;2023-02-21T17:04:18;11.60;99.90
1129;DHT22;553;51.038;7.216;2023-02-21T17:06:47;11.30;99.90
1129;DHT22;553;51.038;7.216;2023-02-21T17:09:22;11.10;99.90
1129;DHT22;553;51.038;7.216;2023-02-21T17:11:49;10.80;99.90
1129;DHT22;553;51.038;7.216;2023-02-21T17:14:15;10.60;99.90
1129;DHT22;553;51.038;7.216;2023-02-21T17:16:42;10.50;99.90
1129;DHT22;553;51.038;7.216;2023-02-21T17:19:15;10.30;99.90
1129;DHT22;553;51.038;7.216;2023-02-21T17:21:43;10.10;99.90
1129;DHT22;553;51.038;7.216;2023-02-21T17:24:11;10.00;99.90
1129;DHT22;553;51.038;7.216;2023-02-21T17:26:39;9.90;99.90
1129;DHT22;553;51.038;7.216;2023-02-21T17:29:07;9.80;99.90
1129;DHT22;553;51.038;7.216;2023-02-21T17:31:34;9.70;99.90
1129;DHT22;553;51.038;7.216;2023-02-21T17:34:01;9.70;99.90
1129;DHT22;553;51.038;7.216;2023-02-21T17:36:28;9.60;99.90
1129;DHT22;553;51.038;7.216;2023-02-21T17:38:55;9.60;99.90
1129;DHT22;553;51.038;7.216;2023-02-21T17:41:24;9.50;99.90
1129;DHT22;553;51.038;7.216;2023-02-21T17:43:52;9.50;99.90
1129;DHT22;553;51.038;7.216;2023-02-21T17:46:19;9.50;99.90
1129;DHT22;553;51.038;7.216;2023-02-21T17:48:46;9.40;99.90
1129;DHT22;553;51.038;7.216;2023-02-21T17:51:20;9.40;99.90
1129;DHT22;553;51.038;7.216;2023-02-21T17:53:47;9.40;99.90
1129;DHT22;553;51.038;7.216;2023-02-21T17:56:21;9.30;99.90
1129;DHT22;553;51.038;7.216;2023-02-21T17:58:50;9.30;99.90
1129;DHT22;553;51.038;7.216;2023-02-21T18:01:18;9.20;99.90
1129;DHT22;553;51.038;7.216;2023-02-21T18:03:46;9.20;99.90
1129;DHT22;553;51.038;7.216;2023-02-21T18:06:14;9.10;99.90
1129;DHT22;553;51.038;7.216;2023-02-21T18:08:42;9.10;99.90
1129;DHT22;553;51.038;7.216;2023-02-21T18:11:14;9.00;99.90
1129;DHT22;553;51.038;7.216;2023-02-21T18:13:42;9.00;99.90
1129;DHT22;553;51.038;7.216;2023-02-21T18:16:09;9.00;99.90
1129;DHT22;553;51.038;7.216;2023-02-21T18:18:35;9.00;99.90
1129;DHT22;553;51.038;7.216;2023-02-21T18:21:02;9.00;99.90
1129;DHT22;553;51.038;7.216;2023-02-21T18:23:30;9.00;99.90
1129;DHT22;553;51.038;7.216;2023-02-21T18:25:57;8.90;99.90
1129;DHT22;553;51.038;7.216;2023-02-21T18:28:24;8.90;99.90
1129;DHT22;553;51.038;7.216;2023-02-21T18:30:52;8.90;99.90
1129;DHT22;553;51.038;7.216;2023-02-21T18:33:21;8.80;99.90
1129;DHT22;553;51.038;7.216;2023-02-21T18:35:48;8.70;99.90
1129;DHT22;553;51.038;7.216;2023-02-21T18:38:15;8.70;99.90
1129;DHT22;553;51.038;7.216;2023-02-21T18:40:42;8.60;99.90
1129;DHT22;553;51.038;7.216;2023-02-21T18:43:21;8.60;99.90
1129;DHT22;553;51.038;7.216;2023-02-21T18:45:50;8.50;99.90
1129;DHT22;553;51.038;7.216;2023-02-21T18:48:18;8.50;99.90
1129;DHT22;553;51.038;7.216;2023-02-21T18:50:45;8.50;99.90
1129;DHT22;553;51.038;7.216;2023-02-21T18:53:13;8.40;99.90
1129;DHT22;553;51.038;7.216;2023-02-21T18:55:41;8.40;99.90
1129;DHT22;553;51.038;7.216;2023-02-21T18:58:08;8.40;99.90
1129;DHT22;553;51.038;7.216;2023-02-21T19:00:36;8.40;99.90
1129;DHT22;553;51.038;7.216;2023-02-21T19:03:06;8.30;99.90
1129;DHT22;553;51.038;7.216;2023-02-21T19:05:33;8.30;99.90
1129;DHT22;553;51.038;7.216;2023-02-21T19:08:00;8.30;99.90
1129;DHT22;553;51.038;7.216;2023-02-21T19:10:28;8.20;99.90
1129;DHT22;553;51.038;7.216;2023-02-21T19:12:55;8.20;99.90
1129;DHT22;553;51.038;7.216;2023-02-21T19:15:24;8.10;99.90
1129;DHT22;553;51.038;7.216;2023-02-21T19:17:51;8.10;99.90
1129;DHT22;553;51.038;7.216;2023-02-21T19:20:19;8.10;99.90
1129;DHT22;553;51.038;7.216;2023-02-21T19:22:45;8.20;99.90
1129;DHT22;553;51.038;7.216;2023-02-21T19:25:14;8.20;99.90
1129;DHT22;553;51.038;7.216;2023-02-21T19:27:42;8.20;99.90
1129;DHT22;553;51.038;7.216;2023-02-21T19:30:13;8.10;99.90
1129;DHT22;553;51.038;7.216;2023-02-21T19:32:39;8.10;99.90